Sycamore Park, Indiana
Current Conditions -  °F | °C
As of 12:53 AM on Wednesday 28 Jan 2015 (Local Time) from KHUF Reporting Station
Clear Clear  
Wind Chill: -7°   Ceiling: Unl
Heat Index: -7°   Visibility: 7mi
Dew Point: -8°   Wind: 0mph
Humidity: 89%   Direction: NA
Pressure: 30.28"   Gusts: NA
Location:  39.5107°N, 87.4772°W
Report Text: KHUF 280553Z 00000KT 7SM CLR M07/M08 A3028 RMK AO2 SLP261 I1000 I6000 T10671083 11022 21067 53007
Loading
Personal Weather Stations






























Interactive Weather Map New forecast layout! Learn more

10-Day Weather Forecast

Advertisements
Track Severe Weather on mobile